createdAt,value
2019-04-20T00:00:46.855Z,73.66
2019-04-20T00:03:13.893Z,73.85
2019-04-20T00:05:43.540Z,74.23
2019-04-20T00:08:19.447Z,73.99
2019-04-20T00:10:53.000Z,73.88
2019-04-20T00:13:25.509Z,73.32
2019-04-20T00:15:47.235Z,73.97
2019-04-20T00:18:17.045Z,73.97
2019-04-20T00:21:04.802Z,73.99
2019-04-20T00:23:48.643Z,73.87
2019-04-20T00:27:04.876Z,73.70
2019-04-20T00:29:23.929Z,74.52
2019-04-20T00:31:48.894Z,74.70
2019-04-20T00:34:15.672Z,73.95
2019-04-20T00:36:39.225Z,72.87
2019-04-20T00:39:11.482Z,74.38
2019-04-20T00:41:46.839Z,75.19
2019-04-20T00:44:17.262Z,75.17
2019-04-20T00:46:56.838Z,74.88
2019-04-20T00:49:29.300Z,75.26
2019-04-20T00:52:15.186Z,75.35
2019-04-20T00:54:16.035Z,74.86
2019-04-20T00:56:45.495Z,74.24
2019-04-20T00:59:30.193Z,73.91
2019-04-20T01:02:03.948Z,74.04
2019-04-20T01:04:39.223Z,74.03
2019-04-20T01:07:24.229Z,74.30
2019-04-20T01:10:04.700Z,74.49
2019-04-20T01:12:36.880Z,73.62
2019-04-20T01:15:09.922Z,72.98
2019-04-20T01:17:41.801Z,73.44
2019-04-20T01:20:09.290Z,73.87
2019-04-20T01:22:44.627Z,74.26
2019-04-20T01:25:18.350Z,74.44
2019-04-20T01:28:02.239Z,73.73
2019-04-20T01:30:21.057Z,74.37
2019-04-20T01:33:00.496Z,74.52
2019-04-20T01:35:31.805Z,74.18
2019-04-20T01:38:09.631Z,74.04
2019-04-20T01:40:17.541Z,74.21
2019-04-20T01:42:47.069Z,73.51
2019-04-20T01:45:24.758Z,73.48
2019-04-20T01:47:52.337Z,73.91
2019-04-20T01:50:24.659Z,73.38
2019-04-20T01:53:03.515Z,73.36
2019-04-20T01:55:38.600Z,72.82
2019-04-20T01:58:35.348Z,73.14
2019-04-20T02:01:25.982Z,72.84
2019-04-20T02:04:11.916Z,72.92
2019-04-20T02:06:43.436Z,73.41
2019-04-20T02:09:15.230Z,73.57
2019-04-20T02:11:44.712Z,74.37
2019-04-20T02:14:13.844Z,73.66
2019-04-20T02:16:47.995Z,73.58
2019-04-20T02:19:30.406Z,73.52
2019-04-20T02:22:01.519Z,73.36
2019-04-20T02:24:17.854Z,73.75
2019-04-20T02:26:50.078Z,74.64
2019-04-20T02:29:40.690Z,73.95
2019-04-20T02:32:26.481Z,74.19
2019-04-20T02:35:16.085Z,74.44
2019-04-20T02:40:45.081Z,74.47
2019-04-20T02:48:00.997Z,72.98
2019-04-20T02:50:36.487Z,72.50
2019-04-20T02:53:20.449Z,73.24
2019-04-20T02:55:41.818Z,73.92
2019-04-20T02:58:09.339Z,73.88
2019-04-20T03:00:50.407Z,73.39
2019-04-20T03:02:53.690Z,73.51
2019-04-20T03:05:25.447Z,73.23
2019-04-20T03:08:05.686Z,73.66
2019-04-20T03:10:44.666Z,73.66
2019-04-20T03:13:08.017Z,73.78
2019-04-20T03:15:37.633Z,73.64
2019-04-20T03:18:08.840Z,74.06
2019-04-20T03:20:41.762Z,73.71
2019-04-20T03:23:26.408Z,72.73
2019-04-20T03:26:01.262Z,73.05
2019-04-20T03:28:45.654Z,73.38
2019-04-20T03:34:15.129Z,72.96
2019-04-20T03:36:39.395Z,72.98
2019-04-20T03:38:48.283Z,73.93
2019-04-20T03:41:13.995Z,73.56
2019-04-20T03:43:35.216Z,74.06
2019-04-20T03:46:10.573Z,74.27
2019-04-20T03:48:54.729Z,74.37
2019-04-20T03:51:35.833Z,74.46
2019-04-20T03:54:08.645Z,73.76
2019-04-20T03:57:01.669Z,72.32
2019-04-20T03:59:41.307Z,72.64
2019-04-20T04:02:55.480Z,73.33
2019-04-20T04:05:27.434Z,73.34
2019-04-20T04:07:50.882Z,73.30
2019-04-20T04:10:28.291Z,73.29
2019-04-20T04:13:21.072Z,72.79
2019-04-20T04:15:57.505Z,72.45
2019-04-20T04:18:29.787Z,71.24
2019-04-20T04:21:01.397Z,70.96
2019-04-20T04:23:40.586Z,70.34
2019-04-20T04:26:15.023Z,70.00
2019-04-20T04:28:45.782Z,70.14
2019-04-20T04:31:35.043Z,70.08
2019-04-20T04:33:55.873Z,69.64
2019-04-20T04:36:16.616Z,69.75
2019-04-20T04:38:56.126Z,69.38
2019-04-20T04:41:24.294Z,68.74
2019-04-20T04:43:54.249Z,68.44
2019-04-20T04:46:05.844Z,67.73
2019-04-20T04:48:40.433Z,67.35
2019-04-20T04:51:13.630Z,66.88
2019-04-20T04:53:50.027Z,67.20
2019-04-20T04:56:14.130Z,67.49
2019-04-20T04:58:40.508Z,66.85
2019-04-20T05:01:16.606Z,66.31
2019-04-20T05:04:02.970Z,67.08
2019-04-20T05:06:35.562Z,67.19
2019-04-20T05:08:58.447Z,66.27
2019-04-20T05:11:23.962Z,65.34
2019-04-20T05:14:00.538Z,66.37
2019-04-20T05:16:54.593Z,65.29
2019-04-20T05:19:19.590Z,66.05
2019-04-20T05:22:09.727Z,66.44
2019-04-20T05:24:42.680Z,65.86
2019-04-20T05:27:49.590Z,64.86
2019-04-20T05:29:59.596Z,64.55
2019-04-20T05:32:39.701Z,62.87
2019-04-20T05:35:23.697Z,62.37
2019-04-20T05:40:22.254Z,62.40
2019-04-20T05:42:59.231Z,61.68
2019-04-20T05:45:25.119Z,61.38
2019-04-20T05:48:01.128Z,61.07
2019-04-20T05:50:33.157Z,60.09
2019-04-20T05:53:07.782Z,58.93
2019-04-20T05:55:34.520Z,57.92
2019-04-20T05:58:11.205Z,58.36
2019-04-20T06:00:43.569Z,55.59
2019-04-20T06:03:09.499Z,55.23
2019-04-20T06:05:49.303Z,54.50
2019-04-20T06:08:18.946Z,55.14
2019-04-20T06:10:45.179Z,51.45
2019-04-20T06:13:17.354Z,51.87
2019-04-20T06:16:02.531Z,48.65
2019-04-20T06:18:49.600Z,46.89
2019-04-20T06:21:32.551Z,48.74
2019-04-20T06:24:26.533Z,48.70
2019-04-20T06:27:04.985Z,46.52
2019-04-20T06:29:23.697Z,45.28
2019-04-20T06:31:59.223Z,46.37
2019-04-20T06:37:18.719Z,43.26
2019-04-20T06:44:34.298Z,38.29
2019-04-20T06:49:51.350Z,36.69
2019-04-20T06:52:35.328Z,35.98
2019-04-20T06:55:05.622Z,36.18
2019-04-20T07:00:28.712Z,37.77
2019-04-20T07:12:48.094Z,27.32
2019-04-20T07:15:21.372Z,27.42
2019-04-20T07:17:58.744Z,25.42
2019-04-20T07:20:52.615Z,23.55
2019-04-20T07:23:22.374Z,19.25
2019-04-20T07:25:47.377Z,20.22
2019-04-20T07:28:26.562Z,17.80
2019-04-20T07:30:50.258Z,19.62
2019-04-20T07:33:30.355Z,22.98
2019-04-20T07:35:50.774Z,24.33
2019-04-20T07:38:34.341Z,25.33
2019-04-20T07:41:00.021Z,22.48
2019-04-20T07:43:32.048Z,20.89
2019-04-20T07:46:03.043Z,18.44
2019-04-20T07:48:31.090Z,16.83
2019-04-20T07:50:55.502Z,18.06
2019-04-20T07:53:32.140Z,16.49
2019-04-20T07:56:06.732Z,15.72
2019-04-20T07:58:28.560Z,14.23
2019-04-20T08:01:23.727Z,15.78
2019-04-20T08:03:56.766Z,15.78
2019-04-20T08:06:37.096Z,18.90
2019-04-20T08:09:15.321Z,18.69
2019-04-20T08:11:56.172Z,21.71
2019-04-20T08:14:25.939Z,23.11
2019-04-20T08:19:23.452Z,26.31
2019-04-20T08:21:52.458Z,24.66
2019-04-20T08:24:21.570Z,24.90
2019-04-20T08:26:45.347Z,19.29
2019-04-20T08:29:42.729Z,20.98
2019-04-20T08:32:27.082Z,21.48
2019-04-20T08:34:57.933Z,24.19
2019-04-20T08:37:28.792Z,25.57
2019-04-20T08:40:05.462Z,27.24
2019-04-20T08:42:29.866Z,25.65
2019-04-20T08:45:04.174Z,29.85
2019-04-20T08:47:37.983Z,28.59
2019-04-20T08:50:21.031Z,26.16
2019-04-20T08:55:19.988Z,23.65
2019-04-20T08:57:29.266Z,21.91
2019-04-20T09:00:01.440Z,18.41
2019-04-20T09:02:30.431Z,19.04
2019-04-20T09:05:04.963Z,18.61
2019-04-20T09:07:35.090Z,21.64
2019-04-20T09:10:31.892Z,22.64
2019-04-20T09:12:50.638Z,23.56
2019-04-20T09:15:05.981Z,23.75
2019-04-20T09:17:47.194Z,19.20
2019-04-20T09:20:16.428Z,17.86
2019-04-20T09:23:11.651Z,16.49
2019-04-20T09:25:56.879Z,15.96
2019-04-20T09:28:32.851Z,17.63
2019-04-20T09:31:30.979Z,18.99
2019-04-20T09:34:33.687Z,20.07
2019-04-20T09:37:27.828Z,19.49
2019-04-20T09:40:21.204Z,21.08
2019-04-20T09:43:02.417Z,19.68
2019-04-20T09:45:47.614Z,20.47
2019-04-20T09:48:19.979Z,19.53
2019-04-20T09:51:07.899Z,14.60
2019-04-20T09:53:31.423Z,14.31
2019-04-20T09:56:10.383Z,13.62
2019-04-20T09:58:32.022Z,13.36
2019-04-20T10:01:02.057Z,12.02
2019-04-20T10:03:21.149Z,12.19
2019-04-20T10:05:51.612Z,13.98
2019-04-20T10:08:21.849Z,15.69
2019-04-20T10:10:52.925Z,17.35
2019-04-20T10:13:22.486Z,17.21
2019-04-20T10:15:53.169Z,15.98
2019-04-20T10:18:23.738Z,15.30
2019-04-20T10:20:53.900Z,16.19
2019-04-20T10:23:24.742Z,13.20
2019-04-20T10:25:54.446Z,15.44
2019-04-20T10:28:23.832Z,17.41
2019-04-20T10:30:54.645Z,17.79
2019-04-20T10:33:24.069Z,20.01
2019-04-20T10:35:53.954Z,19.00
2019-04-20T10:38:34.003Z,17.34
2019-04-20T10:41:08.205Z,17.45
2019-04-20T10:43:32.860Z,16.34
2019-04-20T10:46:02.801Z,18.12
2019-04-20T10:48:41.547Z,18.91
2019-04-20T10:51:03.415Z,21.17
2019-04-20T10:53:32.843Z,19.39
2019-04-20T10:56:03.459Z,15.51
2019-04-20T10:58:33.783Z,17.18
2019-04-20T11:01:03.938Z,17.84
2019-04-20T11:03:34.586Z,17.35
2019-04-20T11:06:04.819Z,16.93
2019-04-20T11:08:34.828Z,17.06
2019-04-20T11:11:14.029Z,17.84
2019-04-20T11:13:35.461Z,16.48
2019-04-20T11:16:06.351Z,18.27
2019-04-20T11:18:35.908Z,18.69
2019-04-20T11:21:05.403Z,20.48
2019-04-20T11:23:36.188Z,19.16
2019-04-20T11:26:06.328Z,22.88
2019-04-20T11:28:35.797Z,21.94
2019-04-20T11:31:06.019Z,21.71
2019-04-20T11:33:36.229Z,23.47
2019-04-20T11:36:05.670Z,26.43
2019-04-20T11:38:35.320Z,25.76
2019-04-20T11:41:14.463Z,26.06
2019-04-20T11:43:35.861Z,24.34
2019-04-20T11:46:06.780Z,24.28
2019-04-20T11:48:37.246Z,24.92
2019-04-20T11:51:07.578Z,27.76
2019-04-20T11:53:38.208Z,27.26
2019-04-20T11:56:15.911Z,26.37
2019-04-20T11:58:39.154Z,27.85
2019-04-20T12:01:30.208Z,27.65
2019-04-20T12:04:04.128Z,27.29
2019-04-20T12:06:28.905Z,28.06
2019-04-20T12:08:58.989Z,27.25
2019-04-20T12:11:37.104Z,25.90
2019-04-20T12:14:00.676Z,28.08
2019-04-20T12:16:30.038Z,26.49
2019-04-20T12:19:00.172Z,28.16
2019-04-20T12:21:30.722Z,27.45
2019-04-20T12:24:00.432Z,26.68
2019-04-20T12:26:31.018Z,26.81
2019-04-20T12:29:01.452Z,28.17
2019-04-20T12:31:31.495Z,29.33
2019-04-20T12:34:02.179Z,29.42
2019-04-20T12:36:33.100Z,28.69
2019-04-20T12:39:03.408Z,29.10
2019-04-20T12:41:39.766Z,31.86
2019-04-20T12:44:04.167Z,30.68
2019-04-20T12:46:34.040Z,28.18
2019-04-20T12:49:03.455Z,27.32
2019-04-20T12:51:39.839Z,29.14
2019-04-20T12:54:04.709Z,30.56
2019-04-20T12:56:34.871Z,30.86
2019-04-20T12:59:05.508Z,31.31
2019-04-20T13:01:35.488Z,31.91
2019-04-20T13:04:07.429Z,32.62
2019-04-20T15:57:59.653Z,32.33
2019-04-20T16:00:29.212Z,32.87
2019-04-20T16:03:05.528Z,31.56
2019-04-20T16:05:39.195Z,33.09
2019-04-20T16:08:26.136Z,31.80
2019-04-20T16:10:55.518Z,33.02
2019-04-20T16:26:44.132Z,30.66
2019-04-20T16:29:13.631Z,35.42
2019-04-20T16:31:46.368Z,31.88
2019-04-20T16:34:15.866Z,32.58
2019-04-20T16:36:46.365Z,34.66
2019-04-20T16:39:16.514Z,33.44
2019-04-20T16:41:46.494Z,34.26
2019-04-20T16:44:17.429Z,35.19
2019-04-20T16:46:48.076Z,35.40
2019-04-20T16:49:19.127Z,37.22
2019-04-20T16:51:49.350Z,36.84
2019-04-20T16:54:19.558Z,38.71
2019-04-20T16:56:49.067Z,36.65
2019-04-20T16:59:19.608Z,37.66
2019-04-20T17:01:50.638Z,39.35
2019-04-20T17:04:22.562Z,37.57
2019-04-20T17:07:10.181Z,37.63
2019-04-20T17:09:39.918Z,38.07
2019-04-20T17:12:10.041Z,38.56
2019-04-20T17:14:39.935Z,38.51
2019-04-20T17:17:09.601Z,38.88
2019-04-20T17:19:39.910Z,39.33
2019-04-20T17:22:09.804Z,39.32
2019-04-20T17:24:39.960Z,39.58
2019-04-20T17:27:19.140Z,39.69
2019-04-20T17:30:17.806Z,39.98
2019-04-20T17:32:45.470Z,40.44
2019-04-20T17:35:27.679Z,40.91
2019-04-20T17:37:49.525Z,41.16
2019-04-20T17:40:36.782Z,41.41
2019-04-20T17:43:01.752Z,41.92
2019-04-20T17:45:36.395Z,42.09
2019-04-20T17:48:08.947Z,42.14
2019-04-20T17:50:41.507Z,42.25
2019-04-20T17:53:06.099Z,42.43
2019-04-20T17:55:37.749Z,42.58
2019-04-20T17:58:05.769Z,42.66
2019-04-20T18:01:13.671Z,42.62
2019-04-20T18:04:13.939Z,42.53
2019-04-20T18:06:27.782Z,42.42
2019-04-20T18:08:56.425Z,42.53
2019-04-20T18:11:16.781Z,43.10
2019-04-20T18:13:44.967Z,43.15
2019-04-20T18:16:41.917Z,43.42
2019-04-20T18:19:21.950Z,43.21
2019-04-20T18:21:56.004Z,43.30
2019-04-20T18:24:49.284Z,44.37
2019-04-20T18:27:17.401Z,44.48
2019-04-20T18:29:45.616Z,45.31
2019-04-20T18:32:31.461Z,45.09
2019-04-20T18:35:14.105Z,45.99
2019-04-20T18:37:51.335Z,46.47
2019-04-20T18:40:26.926Z,46.47
2019-04-20T18:42:57.151Z,45.11
2019-04-20T18:45:33.750Z,46.19
2019-04-20T18:48:06.589Z,47.13
2019-04-20T18:50:27.735Z,46.84
2019-04-20T18:52:51.764Z,46.48
2019-04-20T18:55:30.439Z,46.48
2019-04-20T18:57:53.022Z,47.34
2019-04-20T19:00:29.735Z,47.34
2019-04-20T19:02:57.767Z,48.63
2019-04-20T19:05:26.078Z,49.41
2019-04-20T19:07:59.864Z,49.41
2019-04-20T19:10:31.550Z,50.02
2019-04-20T19:13:06.673Z,50.42
2019-04-20T19:16:03.702Z,50.25
2019-04-20T19:19:04.177Z,50.76
2019-04-20T19:21:23.289Z,50.66
2019-04-20T19:23:59.960Z,50.35
2019-04-20T19:26:25.609Z,50.35
2019-04-20T19:28:58.333Z,51.48
2019-04-20T19:31:42.525Z,50.66
2019-04-20T19:34:16.725Z,51.07
2019-04-20T19:36:36.942Z,51.07
2019-04-20T19:39:15.249Z,51.61
2019-04-20T19:41:40.657Z,51.65
2019-04-20T19:44:13.122Z,52.19
2019-04-20T19:47:00.920Z,52.19
2019-04-20T19:49:19.709Z,51.85
2019-04-20T19:52:02.893Z,51.62
2019-04-20T19:54:30.151Z,51.80
2019-04-20T19:56:54.288Z,51.11
2019-04-20T19:59:21.627Z,51.64
2019-04-20T20:01:42.029Z,51.69
2019-04-20T20:04:11.984Z,51.60
2019-04-20T20:06:47.732Z,51.74
2019-04-20T20:09:17.862Z,51.82
2019-04-20T20:11:48.517Z,51.70
2019-04-20T20:14:31.977Z,51.67
2019-04-20T20:17:13.820Z,51.54
2019-04-20T20:19:37.159Z,51.77
2019-04-20T20:22:05.598Z,52.29
2019-04-20T20:24:23.285Z,51.85
2019-04-20T20:27:00.478Z,52.34
2019-04-20T20:29:32.667Z,52.66
2019-04-20T20:32:05.164Z,53.04
2019-04-20T20:34:33.309Z,53.22
2019-04-20T20:37:03.558Z,53.57
2019-04-20T20:39:32.595Z,53.31
2019-04-20T20:42:13.085Z,53.93
2019-04-20T20:44:41.167Z,52.61
2019-04-20T20:47:30.074Z,52.15
2019-04-20T20:50:01.421Z,52.03
2019-04-20T20:52:21.981Z,52.19
2019-04-20T20:54:49.495Z,51.92
2019-04-20T20:57:14.880Z,51.84
2019-04-20T20:59:49.454Z,51.84
2019-04-20T21:02:18.052Z,52.39
2019-04-20T21:04:41.749Z,52.43
2019-04-20T21:07:11.170Z,52.64
2019-04-20T21:09:41.781Z,52.35
2019-04-20T21:12:15.982Z,52.89
2019-04-20T21:14:43.691Z,53.47
2019-04-20T21:17:18.394Z,53.60
2019-04-20T21:20:02.913Z,53.45
2019-04-20T21:22:33.615Z,53.94
2019-04-20T21:24:51.470Z,53.73
2019-04-20T21:27:22.201Z,53.48
2019-04-20T21:29:56.074Z,53.48
2019-04-20T21:32:23.843Z,54.25
2019-04-20T21:35:00.334Z,54.35
2019-04-20T21:37:27.052Z,54.78
2019-04-20T21:39:59.819Z,55.52
2019-04-20T21:42:28.603Z,55.96
2019-04-20T21:45:09.456Z,55.57
2019-04-20T21:47:33.839Z,55.61
2019-04-20T21:50:18.739Z,55.74
2019-04-20T21:52:40.819Z,56.33
2019-04-20T21:55:03.830Z,55.25
2019-04-20T21:57:42.067Z,55.20
2019-04-20T22:00:10.236Z,55.44
2019-04-20T22:02:44.708Z,55.88
2019-04-20T22:05:09.524Z,54.89
2019-04-20T22:07:39.105Z,55.44
2019-04-20T22:10:13.991Z,55.02
2019-04-20T22:12:47.631Z,54.63
2019-04-20T22:15:19.857Z,55.06
2019-04-20T22:17:42.743Z,55.43
2019-04-20T22:20:23.229Z,55.84
2019-04-20T22:23:01.026Z,55.98
2019-04-20T22:25:32.931Z,55.09
2019-04-20T22:27:46.357Z,54.32
2019-04-20T22:30:15.758Z,53.86
2019-04-20T22:32:49.570Z,54.17
2019-04-20T22:35:18.836Z,54.79
2019-04-20T22:37:59.819Z,55.38
2019-04-20T22:40:31.047Z,55.52
2019-04-20T22:43:00.123Z,56.13
2019-04-20T22:45:27.663Z,56.37
2019-04-20T22:48:01.318Z,56.16
2019-04-20T22:50:43.825Z,55.98
2019-04-20T22:53:17.888Z,55.81
2019-04-20T22:55:54.825Z,55.22
2019-04-20T22:58:22.519Z,55.15
2019-04-20T23:00:42.132Z,54.64
2019-04-20T23:03:05.003Z,54.73
2019-04-20T23:05:34.591Z,54.63
2019-04-20T23:08:04.566Z,54.68
2019-04-20T23:10:39.101Z,55.10
2019-04-20T23:13:05.370Z,54.58
2019-04-20T23:15:34.687Z,54.85
2019-04-20T23:18:04.312Z,54.54
2019-04-20T23:20:36.155Z,54.56
2019-04-20T23:23:05.228Z,54.83
2019-04-20T23:25:35.244Z,55.26
2019-04-20T23:28:12.368Z,55.13
2019-04-20T23:30:39.455Z,55.17
2019-04-20T23:33:09.663Z,55.42
2019-04-20T23:35:46.187Z,55.69
2019-04-20T23:38:14.355Z,55.69
2019-04-20T23:40:41.768Z,56.42
2019-04-20T23:43:23.410Z,56.33
2019-04-20T23:46:15.163Z,56.19
2019-04-20T23:48:45.107Z,56.15
2019-04-20T23:51:36.843Z,56.80
2019-04-20T23:53:55.553Z,56.80
2019-04-20T23:56:20.207Z,57.04
2019-04-20T23:58:51.830Z,58.24
